createdAt,value
2023-05-01T00:07:24.399Z,45.88
2023-05-01T00:22:26.157Z,45.96
2023-05-01T00:37:27.843Z,45.83
2023-05-01T00:52:29.732Z,45.90
2023-05-01T01:07:48.097Z,45.98
2023-05-01T01:23:34.904Z,46.09
2023-05-01T01:38:43.904Z,45.81
2023-05-01T01:53:50.829Z,45.64
2023-05-01T02:08:54.067Z,45.69
2023-05-01T02:23:56.342Z,45.57
2023-05-01T02:38:58.168Z,45.62
2023-05-01T02:54:00.499Z,45.69
2023-05-01T03:09:02.128Z,45.33
2023-05-01T03:24:03.909Z,45.50
2023-05-01T03:39:05.597Z,45.44
2023-05-01T03:54:07.268Z,45.09
2023-05-01T04:09:08.998Z,45.02
2023-05-01T04:24:10.677Z,45.40
2023-05-01T04:39:12.480Z,45.05
2023-05-01T04:54:14.234Z,45.01
2023-05-01T05:09:16.954Z,44.85
2023-05-01T05:24:20.366Z,44.90
2023-05-01T05:39:22.523Z,44.83
2023-05-01T05:54:24.262Z,44.84
2023-05-01T06:09:26.003Z,44.98
2023-05-01T06:24:27.913Z,44.87
2023-05-01T06:39:29.570Z,44.61
2023-05-01T06:54:31.459Z,44.19
2023-05-01T07:09:33.156Z,44.14
2023-05-01T07:24:34.898Z,43.78
2023-05-01T07:39:36.606Z,43.86
2023-05-01T07:54:38.333Z,43.90
2023-05-01T08:09:40.047Z,44.20
2023-05-01T08:24:41.722Z,44.29
2023-05-01T08:39:43.399Z,44.45
2023-05-01T08:54:46.164Z,44.61
2023-05-01T09:09:47.997Z,44.43
2023-05-01T09:24:52.655Z,44.68
2023-05-01T09:40:14.364Z,44.74
2023-05-01T09:55:17.748Z,45.23
2023-05-01T10:10:20.880Z,44.81
2023-05-01T10:25:23.583Z,45.33
2023-05-01T10:40:40.665Z,44.99
2023-05-01T10:55:44.124Z,45.23
2023-05-01T11:10:45.851Z,45.45
2023-05-01T11:25:47.995Z,45.50
2023-05-01T11:40:55.152Z,45.69
2023-05-01T11:55:56.843Z,45.77
2023-05-01T12:10:58.763Z,45.64
2023-05-01T12:26:01.056Z,45.75
2023-05-01T12:41:02.903Z,45.72
2023-05-01T12:56:04.869Z,45.70
2023-05-01T13:11:12.208Z,45.70
2023-05-01T13:26:14.062Z,45.86
2023-05-01T13:41:20.427Z,46.06
2023-05-01T13:56:22.338Z,46.34
2023-05-01T14:11:24.099Z,46.12
2023-05-01T14:26:25.883Z,46.49
2023-05-01T14:41:28.061Z,46.41
2023-05-01T14:56:29.780Z,46.55
2023-05-01T15:11:31.767Z,46.57
2023-05-01T15:26:33.430Z,46.54
2023-05-01T15:41:35.260Z,46.14
2023-05-01T15:56:37.914Z,46.74
2023-05-01T16:11:39.704Z,46.39
2023-05-01T16:26:41.556Z,46.37
2023-05-01T16:41:45.847Z,46.27
2023-05-01T16:56:47.567Z,46.39
2023-05-01T17:11:49.272Z,46.62
2023-05-01T17:26:50.986Z,46.43
2023-05-01T17:41:52.628Z,46.25
2023-05-01T17:56:54.437Z,46.55
2023-05-01T18:11:56.070Z,46.83
2023-05-01T18:26:57.715Z,46.81
2023-05-01T18:41:59.395Z,46.77
2023-05-01T18:57:01.244Z,46.53
2023-05-01T19:12:02.890Z,46.83
2023-05-01T19:27:04.607Z,46.83
2023-05-01T19:42:06.307Z,46.61
2023-05-01T19:57:08.145Z,46.72
2023-05-01T20:12:09.792Z,46.67
2023-05-01T20:27:11.488Z,46.35
2023-05-01T20:42:13.196Z,46.58
2023-05-01T20:57:15.738Z,46.27
2023-05-01T21:12:17.552Z,46.43
2023-05-01T21:27:19.217Z,46.51
2023-05-01T21:42:21.102Z,46.04
2023-05-01T21:57:22.801Z,46.34
2023-05-01T22:12:24.493Z,46.58
2023-05-01T22:27:26.186Z,46.44
2023-05-01T22:42:27.828Z,46.72
2023-05-01T22:57:29.581Z,46.08
2023-05-01T23:12:31.214Z,46.19
2023-05-01T23:27:35.699Z,46.11
2023-05-01T23:42:38.688Z,46.34
2023-05-01T23:57:40.315Z,46.14
